Monastir-Skanes, Tunisia
Current Conditions -  °F | °C
As of 5:00 PM on Thursday 23 Oct 2014 (Local Time) from DTMB Reporting Station
Scattered Clouds Scattered Clouds  
Wind Chill: 72°   Ceiling: Unl
Heat Index: 72°   Visibility: 6mi
Dew Point: 48°   Wind: 24mph
Humidity: 43%   Direction: 300°WNW
Pressure: 29.91"   Gusts: NA
Location:  35.67°N, 10.75°E
Report Text: DTMB 231600Z 30021KT 9999 FEW020 SCT023 22/09 Q1013
Loading
Personal Weather Stations






























Interactive Weather Map
Tropical Storm Tracking
New forecast layout! Learn more

10-Day Weather Forecast

Advertisements
Track Severe Weather on mobile